PWSweather.com
Personal Weather Stations
Station Observations
RHPWSHOR1
Horwich, BoltonGB

HorwichBoltonGB

Lat: 53.5852661, Lon: -2.532877

Elevation: 389

Station Type: Oregon Scientific WMR100

Latest ConditionsUpdated 12:12:01 PM GMT Wednesday, Apr 23, 2014
Currently Today's Max Today's Min Today's Average
Temperature 63.0°F17.2°C 63.7°F17.6°C 46.9°F8.3°C 52.9°F11.6°C
Dew Point 34.2°F1.2°C 47.4°F8.6°C 34.2°F1.2°C 43.5°F6.4°C
Winds 4.0 mph WSW6.4 kmh WSW 6.3 mph ESE10.1 kmh ESE - 1.9 mph 3.1 kmh
Wind Gusts 4.0 mph6.4 kmh 7.2 mph11.6 kmh - -
Humidity 34% 89% 34% 73%
Pressure 29.32 in992.9 mb 29.35 in993.9 mb 29.26 in990.9 mb -
Hour Temp Dew Point Humidity Winds Wind Gusts Pressure Precip Precip Rate Daily Precip Total
12:12 PM 63.0°F17.2°C 34.2°F1.2°C 34% 4.0 mph WSW6.4 kmh WSW 4.0 mph6.4 kmh 29.32 in992.9 mb 0.00 in0.0 mm 0.00 in/hr0.0 mm/hr 0.00 in0.0 mm
12:03 PM 63.7°F17.6°C 35.5°F1.9°C 35% 2.0 mph S3.2 kmh S 2.2 mph3.5 kmh 29.32 in992.9 mb 0.00 in0.0 mm 0.00 in/hr0.0 mm/hr 0.00 in0.0 mm
11:54 AM 63.0°F17.2°C 34.9°F1.6°C 35% 5.8 mph ENE9.3 kmh ENE 5.8 mph9.3 kmh 29.32 in992.9 mb 0.00 in0.0 mm 0.00 in/hr0.0 mm/hr 0.00 in0.0 mm
11:47 AM 62.6°F17.0°C 34.6°F1.4°C 35% 4.0 mph E6.4 kmh E 4.0 mph6.4 kmh 29.35 in993.9 mb 0.00 in0.0 mm 0.00 in/hr0.0 mm/hr 0.00 in0.0 mm
11:39 AM 62.2°F16.8°C 35.0°F1.7°C 36% 3.6 mph ENE5.8 kmh ENE 5.6 mph9.0 kmh 29.35 in993.9 mb 0.00 in0.0 mm 0.00 in/hr0.0 mm/hr 0.00 in0.0 mm
11:31 AM 62.2°F16.8°C 36.3°F2.4°C 38% 5.4 mph ENE8.7 kmh ENE 5.4 mph8.7 kmh 29.32 in992.9 mb 0.00 in0.0 mm 0.00 in/hr0.0 mm/hr 0.00 in0.0 mm
11:23 AM 60.6°F15.9°C 34.9°F1.6°C 38% 4.0 mph SSE6.4 kmh SSE 4.0 mph6.4 kmh 29.32 in992.9 mb 0.00 in0.0 mm 0.00 in/hr0.0 mm/hr 0.00 in0.0 mm
11:15 AM 61.3°F16.3°C 34.9°F1.6°C 37% 2.5 mph SE4.0 kmh SE 7.2 mph11.6 kmh 29.32 in992.9 mb 0.00 in0.0 mm 0.00 in/hr0.0 mm/hr 0.00 in0.0 mm
11:07 AM 61.7°F16.5°C 35.9°F2.2°C 38% 1.3 mph WSW2.1 kmh WSW 5.4 mph8.7 kmh 29.32 in992.9 mb 0.00 in0.0 mm 0.00 in/hr0.0 mm/hr 0.00 in0.0 mm
10:59 AM 61.3°F16.3°C 34.9°F1.6°C 37% 3.8 mph ENE6.1 kmh ENE 3.8 mph6.1 kmh 29.35 in993.9 mb 0.00 in0.0 mm 0.00 in/hr0.0 mm/hr 0.00 in0.0 mm
10:51 AM 62.2°F16.8°C 40.1°F4.5°C 44% 5.4 mph E8.7 kmh E 5.4 mph8.7 kmh 29.35 in993.9 mb 0.00 in0.0 mm 0.00 in/hr0.0 mm/hr 0.00 in0.0 mm
10:43 AM 61.0°F16.1°C 39.5°F4.2°C 45% 2.9 mph ENE4.7 kmh ENE 3.8 mph6.1 kmh 29.32 in992.9 mb 0.00 in0.0 mm 0.00 in/hr0.0 mm/hr 0.00 in0.0 mm
10:35 AM 59.9°F15.5°C 39.1°F3.9°C 46% 2.5 mph ENE4.0 kmh ENE 2.5 mph4.0 kmh 29.32 in992.9 mb 0.00 in0.0 mm 0.00 in/hr0.0 mm/hr 0.00 in0.0 mm
10:27 AM 59.7°F15.4°C 39.5°F4.2°C 47% 2.7 mph SE4.3 kmh SE 2.7 mph4.3 kmh 29.32 in992.9 mb 0.00 in0.0 mm 0.00 in/hr0.0 mm/hr 0.00 in0.0 mm
10:19 AM 58.8°F14.9°C 39.2°F4.0°C 48% 3.4 mph NW5.5 kmh NW 3.4 mph5.5 kmh 29.35 in993.9 mb 0.00 in0.0 mm 0.00 in/hr0.0 mm/hr 0.00 in0.0 mm
10:11 AM 57.9°F14.4°C 38.9°F3.8°C 49% 3.4 mph E5.5 kmh E 4.0 mph6.4 kmh 29.35 in993.9 mb 0.00 in0.0 mm 0.00 in/hr0.0 mm/hr 0.00 in0.0 mm
10:03 AM 57.7°F14.3°C 38.7°F3.7°C 49% 3.6 mph E5.8 kmh E 3.6 mph5.8 kmh 29.32 in992.9 mb 0.00 in0.0 mm 0.00 in/hr0.0 mm/hr 0.00 in0.0 mm
09:55 AM 57.9°F14.4°C 39.9°F4.4°C 51% 6.3 mph ESE10.1 kmh ESE 6.3 mph10.1 kmh 29.32 in992.9 mb 0.00 in0.0 mm 0.00 in/hr0.0 mm/hr 0.00 in0.0 mm
09:47 AM 57.6°F14.2°C 40.6°F4.8°C 53% 3.6 mph ESE5.8 kmh ESE 5.6 mph9.0 kmh 29.35 in993.9 mb 0.00 in0.0 mm 0.00 in/hr0.0 mm/hr 0.00 in0.0 mm
09:39 AM 57.0°F13.9°C 40.1°F4.5°C 53% 2.0 mph SSE3.2 kmh SSE 2.9 mph4.7 kmh 29.35 in993.9 mb 0.00 in0.0 mm 0.00 in/hr0.0 mm/hr 0.00 in0.0 mm
09:31 AM 57.2°F14.0°C 39.8°F4.3°C 52% 2.5 mph ESE4.0 kmh ESE 3.1 mph5.0 kmh 29.32 in992.9 mb 0.00 in0.0 mm 0.00 in/hr0.0 mm/hr 0.00 in0.0 mm
09:23 AM 57.9°F14.4°C 40.9°F4.9°C 53% 2.2 mph ENE3.5 kmh ENE 2.2 mph3.5 kmh 29.32 in992.9 mb 0.00 in0.0 mm 0.00 in/hr0.0 mm/hr 0.00 in0.0 mm
09:15 AM 57.7°F14.3°C 42.6°F5.9°C 57% 2.5 mph SSW4.0 kmh SSW 5.4 mph8.7 kmh 29.32 in992.9 mb 0.00 in0.0 mm 0.00 in/hr0.0 mm/hr 0.00 in0.0 mm
09:07 AM 57.9°F14.4°C 46.2°F7.9°C 65% 5.8 mph SSE9.3 kmh SSE 6.0 mph9.7 kmh 29.32 in992.9 mb 0.00 in0.0 mm 0.00 in/hr0.0 mm/hr 0.00 in0.0 mm
08:59 AM 57.0°F13.9°C 47.0°F8.3°C 69% 2.5 mph ENE4.0 kmh ENE 2.5 mph4.0 kmh 29.32 in992.9 mb 0.00 in0.0 mm 0.00 in/hr0.0 mm/hr 0.00 in0.0 mm
08:51 AM 55.9°F13.3°C 45.9°F7.7°C 69% 2.5 mph ENE4.0 kmh ENE 3.1 mph5.0 kmh 29.32 in992.9 mb 0.00 in0.0 mm 0.00 in/hr0.0 mm/hr 0.00 in0.0 mm
08:43 AM 54.9°F12.7°C 46.0°F7.8°C 72% 1.3 mph ESE2.1 kmh ESE 2.9 mph4.7 kmh 29.32 in992.9 mb 0.00 in0.0 mm 0.00 in/hr0.0 mm/hr 0.00 in0.0 mm
08:35 AM 54.1°F12.3°C 45.3°F7.4°C 72% 2.9 mph ENE4.7 kmh ENE 2.9 mph4.7 kmh 29.32 in992.9 mb 0.00 in0.0 mm 0.00 in/hr0.0 mm/hr 0.00 in0.0 mm
08:27 AM 53.4°F11.9°C 45.0°F7.2°C 73% 4.0 mph ENE6.4 kmh ENE 4.0 mph6.4 kmh 29.32 in992.9 mb 0.00 in0.0 mm 0.00 in/hr0.0 mm/hr 0.00 in0.0 mm
08:19 AM 53.6°F12.0°C 45.5°F7.5°C 74% 2.0 mph ESE3.2 kmh ESE 2.0 mph3.2 kmh 29.32 in992.9 mb 0.00 in0.0 mm 0.00 in/hr0.0 mm/hr 0.00 in0.0 mm
08:11 AM 53.2°F11.8°C 46.2°F7.9°C 77% 1.1 mph ENE1.8 kmh ENE 1.1 mph1.8 kmh 29.32 in992.9 mb 0.00 in0.0 mm 0.00 in/hr0.0 mm/hr 0.00 in0.0 mm
08:03 AM 53.2°F11.8°C 47.2°F8.4°C 80% Calm Calm -- 29.32 in992.9 mb 0.00 in0.0 mm 0.00 in/hr0.0 mm/hr 0.00 in0.0 mm
07:55 AM 52.9°F11.6°C 46.9°F8.3°C 80% 2.9 mph NE4.7 kmh NE 2.9 mph4.7 kmh 29.32 in992.9 mb 0.00 in0.0 mm 0.00 in/hr0.0 mm/hr 0.00 in0.0 mm
07:47 AM 52.3°F11.3°C 47.0°F8.3°C 82% 2.7 mph E4.3 kmh E 2.7 mph4.3 kmh 29.32 in992.9 mb 0.00 in0.0 mm 0.00 in/hr0.0 mm/hr 0.00 in0.0 mm
07:39 AM 51.8°F11.0°C 47.1°F8.4°C 84% 3.8 mph ESE6.1 kmh ESE 3.8 mph6.1 kmh 29.32 in992.9 mb 0.00 in0.0 mm 0.00 in/hr0.0 mm/hr 0.00 in0.0 mm
07:32 AM 51.6°F10.9°C 47.3°F8.5°C 85% Calm Calm 1.6 mph2.6 kmh 29.32 in992.9 mb 0.00 in0.0 mm 0.00 in/hr0.0 mm/hr 0.00 in0.0 mm
07:24 AM 51.3°F10.7°C 47.2°F8.4°C 86% 2.0 mph SSE3.2 kmh SSE 2.0 mph3.2 kmh 29.32 in992.9 mb 0.00 in0.0 mm 0.00 in/hr0.0 mm/hr 0.00 in0.0 mm
07:16 AM 51.1°F10.6°C 47.4°F8.6°C 87% 2.5 mph ESE4.0 kmh ESE 4.0 mph6.4 kmh 29.32 in992.9 mb 0.00 in0.0 mm 0.00 in/hr0.0 mm/hr 0.00 in0.0 mm
07:08 AM 50.5°F10.3°C 47.1°F8.4°C 88% 2.9 mph ENE4.7 kmh ENE 2.9 mph4.7 kmh 29.32 in992.9 mb 0.00 in0.0 mm 0.00 in/hr0.0 mm/hr 0.00 in0.0 mm
07:00 AM 50.2°F10.1°C 46.8°F8.2°C 88% 2.7 mph NNE4.3 kmh NNE 2.7 mph4.3 kmh 29.32 in992.9 mb 0.00 in0.0 mm 0.00 in/hr0.0 mm/hr 0.00 in0.0 mm
06:52 AM 49.8°F9.9°C 46.7°F8.2°C 89% 0.9 mph WNW1.4 kmh WNW 2.0 mph3.2 kmh 29.32 in992.9 mb 0.00 in0.0 mm 0.00 in/hr0.0 mm/hr 0.00 in0.0 mm
06:44 AM 49.8°F9.9°C 46.7°F8.2°C 89% 0.9 mph SW1.4 kmh SW 0.9 mph1.4 kmh 29.32 in992.9 mb 0.00 in0.0 mm 0.00 in/hr0.0 mm/hr 0.00 in0.0 mm
06:36 AM 49.5°F9.7°C 46.4°F8.0°C 89% 1.1 mph ESE1.8 kmh ESE 1.1 mph1.8 kmh 29.32 in992.9 mb 0.00 in0.0 mm 0.00 in/hr0.0 mm/hr 0.00 in0.0 mm
06:28 AM 48.6°F9.2°C 45.5°F7.5°C 89% Calm Calm -- 29.29 in991.9 mb 0.00 in0.0 mm 0.00 in/hr0.0 mm/hr 0.00 in0.0 mm
06:20 AM 48.6°F9.2°C 45.5°F7.5°C 89% 1.3 mph S2.1 kmh S 2.5 mph4.0 kmh 29.29 in991.9 mb 0.00 in0.0 mm 0.00 in/hr0.0 mm/hr 0.00 in0.0 mm
06:12 AM 48.6°F9.2°C 45.5°F7.5°C 89% 1.6 mph SSW2.6 kmh SSW 1.6 mph2.6 kmh 29.29 in991.9 mb 0.00 in0.0 mm 0.00 in/hr0.0 mm/hr 0.00 in0.0 mm
06:04 AM 48.4°F9.1°C 45.3°F7.4°C 89% 2.2 mph SSW3.5 kmh SSW 2.2 mph3.5 kmh 29.29 in991.9 mb 0.00 in0.0 mm 0.00 in/hr0.0 mm/hr 0.00 in0.0 mm
05:56 AM 48.0°F8.9°C 44.9°F7.2°C 89% 2.5 mph SSE4.0 kmh SSE 3.6 mph5.8 kmh 29.29 in991.9 mb 0.00 in0.0 mm 0.00 in/hr0.0 mm/hr 0.00 in0.0 mm
05:48 AM 47.7°F8.7°C 44.0°F6.7°C 87% 4.0 mph E6.4 kmh E 4.0 mph6.4 kmh 29.29 in991.9 mb 0.00 in0.0 mm 0.00 in/hr0.0 mm/hr 0.00 in0.0 mm
05:40 AM 47.5°F8.6°C 43.8°F6.6°C 87% 1.1 mph NNW1.8 kmh NNW 2.7 mph4.3 kmh 29.29 in991.9 mb 0.00 in0.0 mm 0.00 in/hr0.0 mm/hr 0.00 in0.0 mm
05:32 AM 47.5°F8.6°C 43.8°F6.6°C 87% 0.9 mph SSE1.4 kmh SSE 0.9 mph1.4 kmh 29.29 in991.9 mb 0.00 in0.0 mm 0.00 in/hr0.0 mm/hr 0.00 in0.0 mm
05:25 AM 46.9°F8.3°C 42.7°F5.9°C 85% 2.5 mph ENE4.0 kmh ENE 2.5 mph4.0 kmh 29.29 in991.9 mb 0.00 in0.0 mm 0.00 in/hr0.0 mm/hr 0.00 in0.0 mm
05:18 AM 46.9°F8.3°C 42.7°F5.9°C 85% 1.6 mph E2.6 kmh E 1.6 mph2.6 kmh 29.29 in991.9 mb 0.00 in0.0 mm 0.00 in/hr0.0 mm/hr 0.00 in0.0 mm
05:11 AM 46.9°F8.3°C 42.7°F5.9°C 85% Calm Calm -- 29.29 in991.9 mb 0.00 in0.0 mm 0.00 in/hr0.0 mm/hr 0.00 in0.0 mm
05:04 AM 47.3°F8.5°C 42.7°F5.9°C 84% Calm Calm -- 29.29 in991.9 mb 0.00 in0.0 mm 0.00 in/hr0.0 mm/hr 0.00 in0.0 mm
04:57 AM 47.3°F8.5°C 42.7°F5.9°C 84% Calm Calm -- 29.29 in991.9 mb 0.00 in0.0 mm 0.00 in/hr0.0 mm/hr 0.00 in0.0 mm
04:49 AM 47.7°F8.7°C 43.4°F6.3°C 85% Calm Calm -- 29.29 in991.9 mb 0.00 in0.0 mm 0.00 in/hr0.0 mm/hr 0.00 in0.0 mm
04:41 AM 48.7°F9.3°C 44.1°F6.7°C 84% 1.6 mph NNE2.6 kmh NNE 1.6 mph2.6 kmh 29.29 in991.9 mb 0.00 in0.0 mm 0.00 in/hr0.0 mm/hr 0.00 in0.0 mm
04:33 AM 48.7°F9.3°C 44.1°F6.7°C 84% Calm Calm -- 29.29 in991.9 mb 0.00 in0.0 mm 0.00 in/hr0.0 mm/hr 0.00 in0.0 mm
04:25 AM 48.7°F9.3°C 44.1°F6.7°C 84% Calm Calm -- 29.29 in991.9 mb 0.00 in0.0 mm 0.00 in/hr0.0 mm/hr 0.00 in0.0 mm
04:17 AM 48.9°F9.4°C 44.0°F6.7°C 83% 1.3 mph ESE2.1 kmh ESE 1.3 mph2.1 kmh 29.29 in991.9 mb 0.00 in0.0 mm 0.00 in/hr0.0 mm/hr 0.00 in0.0 mm
04:09 AM 49.1°F9.5°C 44.2°F6.8°C 83% 0.9 mph S1.4 kmh S 0.9 mph1.4 kmh 29.29 in991.9 mb 0.00 in0.0 mm 0.00 in/hr0.0 mm/hr 0.00 in0.0 mm
04:01 AM 50.7°F10.4°C 45.8°F7.7°C 83% 1.1 mph S1.8 kmh S 1.3 mph2.1 kmh 29.29 in991.9 mb 0.00 in0.0 mm 0.00 in/hr0.0 mm/hr 0.00 in0.0 mm
03:53 AM 50.7°F10.4°C 45.8°F7.7°C 83% Calm Calm -- 29.29 in991.9 mb 0.00 in0.0 mm 0.00 in/hr0.0 mm/hr 0.00 in0.0 mm
03:45 AM 50.7°F10.4°C 45.8°F7.7°C 83% 1.3 mph NNE2.1 kmh NNE 1.6 mph2.6 kmh 29.29 in991.9 mb 0.00 in0.0 mm 0.00 in/hr0.0 mm/hr 0.00 in0.0 mm
03:37 AM 50.7°F10.4°C 45.8°F7.7°C 83% 1.6 mph ENE2.6 kmh ENE 1.6 mph2.6 kmh 29.29 in991.9 mb 0.00 in0.0 mm 0.00 in/hr0.0 mm/hr 0.00 in0.0 mm
03:29 AM 50.7°F10.4°C 45.8°F7.7°C 83% 2.0 mph E3.2 kmh E 2.7 mph4.3 kmh 29.29 in991.9 mb 0.00 in0.0 mm 0.00 in/hr0.0 mm/hr 0.00 in0.0 mm
03:21 AM 50.7°F10.4°C 45.8°F7.7°C 83% Calm Calm 1.3 mph2.1 kmh 29.29 in991.9 mb 0.00 in0.0 mm 0.00 in/hr0.0 mm/hr 0.00 in0.0 mm
03:13 AM 50.7°F10.4°C 45.8°F7.7°C 83% 1.1 mph ESE1.8 kmh ESE 1.1 mph1.8 kmh 29.29 in991.9 mb 0.00 in0.0 mm 0.00 in/hr0.0 mm/hr 0.00 in0.0 mm
03:05 AM 50.7°F10.4°C 45.8°F7.7°C 83% 1.1 mph ESE1.8 kmh ESE 1.1 mph1.8 kmh 29.29 in991.9 mb 0.00 in0.0 mm 0.00 in/hr0.0 mm/hr 0.00 in0.0 mm
02:57 AM 50.7°F10.4°C 45.8°F7.7°C 83% 1.1 mph SSW1.8 kmh SSW 3.1 mph5.0 kmh 29.29 in991.9 mb 0.00 in0.0 mm 0.00 in/hr0.0 mm/hr 0.00 in0.0 mm
02:49 AM 50.7°F10.4°C 45.4°F7.4°C 82% 2.0 mph SSE3.2 kmh SSE 2.5 mph4.0 kmh 29.29 in991.9 mb 0.00 in0.0 mm 0.00 in/hr0.0 mm/hr 0.00 in0.0 mm
02:41 AM 50.7°F10.4°C 45.4°F7.4°C 82% Calm Calm -- 29.29 in991.9 mb 0.00 in0.0 mm 0.00 in/hr0.0 mm/hr 0.00 in0.0 mm
02:32 AM 50.7°F10.4°C 45.4°F7.4°C 82% Calm Calm -- 29.29 in991.9 mb 0.00 in0.0 mm 0.00 in/hr0.0 mm/hr 0.00 in0.0 mm
02:24 AM 50.7°F10.4°C 45.4°F7.4°C 82% 1.3 mph ESE2.1 kmh ESE 2.0 mph3.2 kmh 29.29 in991.9 mb 0.00 in0.0 mm 0.00 in/hr0.0 mm/hr 0.00 in0.0 mm
02:16 AM 50.7°F10.4°C 45.4°F7.4°C 82% 1.3 mph SE2.1 kmh SE 1.3 mph2.1 kmh 29.26 in990.9 mb 0.00 in0.0 mm 0.00 in/hr0.0 mm/hr 0.00 in0.0 mm
02:08 AM 50.9°F10.5°C 45.3°F7.4°C 81% 1.3 mph E2.1 kmh E 1.3 mph2.1 kmh 29.26 in990.9 mb 0.00 in0.0 mm 0.00 in/hr0.0 mm/hr 0.00 in0.0 mm
02:00 AM 50.9°F10.5°C 45.3°F7.4°C 81% 0.9 mph E1.4 kmh E 2.2 mph3.5 kmh 29.29 in991.9 mb 0.00 in0.0 mm 0.00 in/hr0.0 mm/hr 0.00 in0.0 mm
01:52 AM 50.9°F10.5°C 45.3°F7.4°C 81% 1.1 mph SE1.8 kmh SE 2.0 mph3.2 kmh 29.29 in991.9 mb 0.00 in0.0 mm 0.00 in/hr0.0 mm/hr 0.00 in0.0 mm
01:44 AM 50.9°F10.5°C 45.3°F7.4°C 81% 1.3 mph SE2.1 kmh SE 2.2 mph3.5 kmh 29.29 in991.9 mb 0.00 in0.0 mm 0.00 in/hr0.0 mm/hr 0.00 in0.0 mm
01:36 AM 50.9°F10.5°C 45.3°F7.4°C 81% 1.3 mph SSE2.1 kmh SSE 1.3 mph2.1 kmh 29.29 in991.9 mb 0.00 in0.0 mm 0.00 in/hr0.0 mm/hr 0.00 in0.0 mm
01:28 AM 50.9°F10.5°C 45.3°F7.4°C 81% 2.0 mph SSE3.2 kmh SSE 2.0 mph3.2 kmh 29.29 in991.9 mb 0.00 in0.0 mm 0.00 in/hr0.0 mm/hr 0.00 in0.0 mm
01:20 AM 50.9°F10.5°C 45.3°F7.4°C 81% 2.7 mph SSE4.3 kmh SSE 2.9 mph4.7 kmh 29.29 in991.9 mb 0.00 in0.0 mm 0.00 in/hr0.0 mm/hr 0.00 in0.0 mm
01:12 AM 50.9°F10.5°C 45.3°F7.4°C 81% 0.9 mph SSE1.4 kmh SSE 0.9 mph1.4 kmh 29.29 in991.9 mb 0.00 in0.0 mm 0.00 in/hr0.0 mm/hr 0.00 in0.0 mm
01:04 AM 50.9°F10.5°C 45.3°F7.4°C 81% 2.2 mph SSE3.5 kmh SSE 2.2 mph3.5 kmh 29.29 in991.9 mb 0.00 in0.0 mm 0.00 in/hr0.0 mm/hr 0.00 in0.0 mm
12:56 AM 50.7°F10.4°C 45.1°F7.3°C 81% 1.6 mph ESE2.6 kmh ESE 1.6 mph2.6 kmh 29.29 in991.9 mb 0.00 in0.0 mm 0.00 in/hr0.0 mm/hr 0.00 in0.0 mm
12:49 AM 50.7°F10.4°C 45.1°F7.3°C 81% 2.0 mph SSE3.2 kmh SSE 2.0 mph3.2 kmh 29.29 in991.9 mb 0.00 in0.0 mm 0.00 in/hr0.0 mm/hr 0.00 in0.0 mm
12:41 AM 50.9°F10.5°C 45.3°F7.4°C 81% 1.1 mph NE1.8 kmh NE 1.1 mph1.8 kmh 29.29 in991.9 mb 0.00 in0.0 mm 0.00 in/hr0.0 mm/hr 0.00 in0.0 mm
12:35 AM 50.9°F10.5°C 45.3°F7.4°C 81% 1.6 mph ESE2.6 kmh ESE 1.6 mph2.6 kmh 29.29 in991.9 mb 0.00 in0.0 mm 0.00 in/hr0.0 mm/hr 0.00 in0.0 mm
12:28 AM 50.7°F10.4°C 45.1°F7.3°C 81% Calm Calm 0.9 mph1.4 kmh 29.29 in991.9 mb 0.00 in0.0 mm 0.00 in/hr0.0 mm/hr 0.00 in0.0 mm
12:21 AM 50.7°F10.4°C 45.1°F7.3°C 81% 2.2 mph ESE3.5 kmh ESE 2.2 mph3.5 kmh 29.29 in991.9 mb 0.00 in0.0 mm 0.00 in/hr0.0 mm/hr 0.00 in0.0 mm
12:14 AM 50.7°F10.4°C 45.1°F7.3°C 81% Calm Calm -- 29.29 in991.9 mb 0.00 in0.0 mm 0.00 in/hr0.0 mm/hr 0.00 in0.0 mm
12:07 AM 50.7°F10.4°C 45.1°F7.3°C 81% 1.1 mph SE1.8 kmh SE 1.3 mph2.1 kmh 29.29 in991.9 mb 0.00 in0.0 mm 0.00 in/hr0.0 mm/hr 0.00 in0.0 mm
12:00 AM 50.7°F10.4°C 45.1°F7.3°C 81% Calm Calm -- 29.29 in991.9 mb 0.00 in0.0 mm 0.00 in/hr0.0 mm/hr 0.00 in0.0 mm